Time;durP1;ratioP1;P1;durP2;ratioP2;P2;SDS_P1;SDS_P2;PMS_P1;PMS_P2;Temp;Humidity;BMP_temperature;BMP_pressure;BME280_temperature;BME280_humidity;BME280_pressure;Samples;Min_cycle;Max_cycle;Signal;HPM_P1;HPM_P2
2023/05/23 00:01:21;;;;;;;10.35;7.53;;;16.70;99.90;;;;;;5039078;28;20149;-71
2023/05/23 00:03:48;;;;;;;9.40;7.63;;;16.70;99.90;;;;;;5038623;28;20029;-70
2023/05/23 00:06:13;;;;;;;10.27;7.32;;;16.70;99.90;;;;;;5038982;28;20017;-71
2023/05/23 00:08:39;;;;;;;12.43;8.25;;;16.70;99.90;;;;;;5038649;28;20443;-70
2023/05/23 00:11:05;;;;;;;9.50;8.40;;;16.70;99.90;;;;;;5027179;28;20022;-70
2023/05/23 00:13:33;;;;;;;9.80;7.55;;;16.70;99.90;;;;;;5037051;28;20029;-70
2023/05/23 00:15:59;;;;;;;8.38;6.97;;;16.70;99.90;;;;;;5038654;28;20030;-70
2023/05/23 00:18:25;;;;;;;10.82;7.93;;;16.70;99.90;;;;;;5038157;28;20029;-70
2023/05/23 00:20:50;;;;;;;9.00;7.78;;;16.60;99.90;;;;;;5038665;28;20543;-70
2023/05/23 00:23:21;;;;;;;11.57;7.95;;;16.60;99.90;;;;;;5038218;28;20091;-70
2023/05/23 00:25:51;;;;;;;11.85;7.90;;;16.60;99.90;;;;;;5038731;28;20405;-70
2023/05/23 00:28:18;;;;;;;12.50;8.52;;;16.60;99.90;;;;;;5038000;28;20478;-71
2023/05/23 00:30:43;;;;;;;9.77;7.22;;;16.60;99.90;;;;;;5038632;28;20390;-70
2023/05/23 00:33:09;;;;;;;12.65;7.93;;;16.60;99.90;;;;;;5038025;28;20032;-71
2023/05/23 00:35:35;;;;;;;8.70;6.93;;;16.50;99.90;;;;;;5038637;28;20385;-71
2023/05/23 00:38:01;;;;;;;9.27;7.50;;;16.50;99.90;;;;;;5038105;28;20458;-71
2023/05/23 00:40:26;;;;;;;10.45;7.80;;;16.50;99.90;;;;;;5038341;28;20025;-71
2023/05/23 00:42:52;;;;;;;8.73;7.75;;;16.40;99.90;;;;;;5038020;28;20026;-70
2023/05/23 00:45:18;;;;;;;11.45;7.30;;;16.40;99.90;;;;;;5038162;28;20101;-71
2023/05/23 00:47:45;;;;;;;13.77;7.65;;;16.30;99.90;;;;;;5037890;28;20881;-71
2023/05/23 00:50:13;;;;;;;9.13;7.55;;;16.30;99.90;;;;;;5038192;28;20409;-71
2023/05/23 00:52:40;;;;;;;8.80;7.03;;;16.30;99.90;;;;;;5037906;28;20017;-70
2023/05/23 00:55:07;;;;;;;9.73;7.63;;;16.20;99.90;;;;;;5036727;28;20109;-70
2023/05/23 00:57:33;;;;;;;7.03;6.32;;;16.10;99.90;;;;;;5036295;28;20028;-70
2023/05/23 01:00:02;;;;;;;9.07;7.57;;;16.10;99.90;;;;;;5037655;28;20493;-70
2023/05/23 01:02:32;;;;;;;7.72;6.65;;;16.00;99.90;;;;;;5037747;28;20474;-70
2023/05/23 01:04:58;;;;;;;11.18;7.65;;;16.00;99.90;;;;;;5037779;28;20022;-70
2023/05/23 01:07:24;;;;;;;10.73;8.93;;;16.00;99.90;;;;;;5037540;28;20025;-70
2023/05/23 01:09:50;;;;;;;9.82;8.43;;;16.00;99.90;;;;;;5027963;28;20030;-70
2023/05/23 01:12:35;;;;;;;8.52;7.10;;;16.00;99.90;;;;;;5035571;28;20116;-70
2023/05/23 01:15:07;;;;;;;11.77;7.45;;;16.00;99.90;;;;;;5037390;28;20025;-70
2023/05/23 01:17:48;;;;;;;9.63;7.22;;;15.90;99.90;;;;;;5037812;28;20029;-70
2023/05/23 01:20:24;;;;;;;11.60;8.07;;;15.90;99.90;;;;;;5037207;28;20057;-70
2023/05/23 01:22:59;;;;;;;9.95;8.00;;;15.90;99.90;;;;;;5036201;28;20477;-70
2023/05/23 01:26:02;;;;;;;10.15;7.65;;;15.80;99.90;;;;;;5035956;28;20075;-71
2023/05/23 01:28:39;;;;;;;8.63;7.72;;;15.80;99.90;;;;;;5032886;28;20023;-70
2023/05/23 01:31:09;;;;;;;11.20;8.55;;;15.70;99.90;;;;;;5037395;28;20030;-71
2023/05/23 01:33:36;;;;;;;11.10;8.77;;;15.60;99.90;;;;;;5037009;28;20044;-71
2023/05/23 01:36:02;;;;;;;9.85;8.15;;;15.60;99.90;;;;;;5037464;28;20081;-71
2023/05/23 01:38:28;;;;;;;11.98;7.47;;;15.50;99.90;;;;;;5037192;28;20033;-71
2023/05/23 01:40:54;;;;;;;9.15;7.78;;;15.40;99.90;;;;;;5035841;28;20030;-71
2023/05/23 01:43:21;;;;;;;11.60;7.97;;;15.40;99.90;;;;;;5037093;28;20398;-71
2023/05/23 01:45:48;;;;;;;11.23;8.05;;;15.30;99.90;;;;;;5037026;28;20025;-71
2023/05/23 01:48:15;;;;;;;9.77;7.50;;;15.20;99.90;;;;;;5037113;28;20021;-71
2023/05/23 01:50:46;;;;;;;10.00;8.20;;;15.10;99.90;;;;;;5037163;28;20029;-70
2023/05/23 01:53:14;;;;;;;9.20;8.18;;;15.10;99.90;;;;;;5037116;28;20509;-70
2023/05/23 01:55:41;;;;;;;10.70;8.77;;;15.00;99.90;;;;;;5036867;28;20041;-71
2023/05/23 01:58:07;;;;;;;10.98;8.73;;;15.00;99.90;;;;;;5036889;28;20138;-70
2023/05/23 02:00:33;;;;;;;15.70;8.52;;;14.90;99.90;;;;;;5035458;28;20029;-70
2023/05/23 02:02:59;;;;;;;10.32;8.98;;;14.80;99.90;;;;;;5037393;28;20022;-70
2023/05/23 02:05:26;;;;;;;11.88;9.07;;;14.80;99.90;;;;;;5036519;28;20466;-70
2023/05/23 02:07:51;;;;;;;12.68;9.27;;;14.80;99.90;;;;;;5035741;28;20021;-71
2023/05/23 02:10:18;;;;;;;11.63;8.15;;;14.70;99.90;;;;;;5023468;28;20032;-70
2023/05/23 02:12:44;;;;;;;16.33;10.77;;;14.60;99.90;;;;;;5036679;28;20473;-70
2023/05/23 02:15:10;;;;;;;12.57;10.50;;;14.70;99.90;;;;;;5034972;28;20092;-70
2023/05/23 02:17:37;;;;;;;13.73;9.48;;;14.70;99.90;;;;;;5036632;28;20103;-70
2023/05/23 02:20:05;;;;;;;10.95;9.57;;;14.60;99.90;;;;;;5036477;28;20083;-71
2023/05/23 02:22:30;;;;;;;13.02;11.00;;;14.60;99.90;;;;;;5036505;28;20021;-71
2023/05/23 02:24:56;;;;;;;16.88;11.85;;;14.60;99.90;;;;;;5040649;28;20032;-71
2023/05/23 02:27:22;;;;;;;13.40;11.77;;;14.60;99.90;;;;;;5040832;28;20027;-71
2023/05/23 02:29:48;;;;;;;17.15;11.57;;;14.50;99.90;;;;;;5040280;28;20036;-71
2023/05/23 02:32:14;;;;;;;15.20;11.05;;;14.50;99.90;;;;;;5040805;28;20025;-71
2023/05/23 02:34:40;;;;;;;14.52;11.48;;;14.50;99.90;;;;;;5040392;28;20032;-71
2023/05/23 02:37:06;;;;;;;16.58;12.75;;;14.50;99.90;;;;;;5040858;28;20458;-70
2023/05/23 02:39:33;;;;;;;16.63;13.40;;;14.50;99.90;;;;;;5040193;28;20057;-71
2023/05/23 02:41:59;;;;;;;15.50;11.07;;;14.50;99.90;;;;;;5040622;28;20022;-70
2023/05/23 02:44:25;;;;;;;13.05;11.13;;;14.50;99.90;;;;;;5038725;28;20417;-70
2023/05/23 02:46:50;;;;;;;16.15;12.05;;;14.50;99.90;;;;;;5040385;28;20021;-70
2023/05/23 02:49:16;;;;;;;18.85;11.95;;;14.40;99.90;;;;;;5040138;28;20193;-70
2023/05/23 02:51:41;;;;;;;13.80;11.38;;;14.40;99.90;;;;;;5040182;28;20025;-70
2023/05/23 02:54:07;;;;;;;15.75;12.15;;;14.40;99.90;;;;;;5038333;28;20061;-71
2023/05/23 02:56:33;;;;;;;13.73;11.40;;;14.40;99.90;;;;;;5040516;28;20105;-71
2023/05/23 02:58:58;;;;;;;15.80;11.20;;;14.30;99.90;;;;;;5038468;28;20124;-71
2023/05/23 03:01:24;;;;;;;13.77;12.23;;;14.30;99.90;;;;;;5039813;28;20026;-70
2023/05/23 03:03:49;;;;;;;14.25;11.45;;;14.20;99.90;;;;;;5039569;28;20032;-70
2023/05/23 03:06:15;;;;;;;15.50;11.35;;;14.30;99.90;;;;;;5039460;28;20026;-71
2023/05/23 03:08:42;;;;;;;14.63;12.00;;;14.30;99.90;;;;;;5038248;28;20017;-71
2023/05/23 03:11:07;;;;;;;14.77;11.75;;;14.20;99.90;;;;;;5033827;28;20017;-71
2023/05/23 03:13:34;;;;;;;14.75;11.63;;;14.20;99.90;;;;;;5039310;28;20027;-71
2023/05/23 03:16:00;;;;;;;15.20;11.48;;;14.10;99.90;;;;;;5039960;28;20108;-71
2023/05/23 03:18:26;;;;;;;14.95;11.70;;;14.10;99.90;;;;;;5039463;28;20061;-71
2023/05/23 03:20:52;;;;;;;13.73;11.40;;;14.10;99.90;;;;;;5039728;28;20028;-71
2023/05/23 03:23:17;;;;;;;15.88;12.05;;;14.10;99.90;;;;;;5039618;28;20017;-71
2023/05/23 03:25:43;;;;;;;16.60;11.95;;;14.10;99.90;;;;;;5039764;28;20029;-71
2023/05/23 03:28:11;;;;;;;20.88;12.20;;;14.10;99.90;;;;;;5039184;28;20092;-71
2023/05/23 03:30:36;;;;;;;16.77;11.88;;;14.10;99.90;;;;;;5039643;28;20021;-71
2023/05/23 03:33:02;;;;;;;13.10;11.73;;;14.10;99.90;;;;;;5039076;28;20047;-71
2023/05/23 03:35:29;;;;;;;13.98;11.18;;;14.10;99.90;;;;;;5038159;28;20057;-71
2023/05/23 03:37:55;;;;;;;15.77;11.85;;;14.10;99.90;;;;;;5038021;28;20390;-70
2023/05/23 03:40:20;;;;;;;16.80;12.85;;;14.10;99.90;;;;;;5038036;28;20029;-70
2023/05/23 03:42:48;;;;;;;19.17;12.70;;;14.10;99.90;;;;;;5039171;28;20025;-70
2023/05/23 03:45:14;;;;;;;18.20;12.48;;;14.10;99.90;;;;;;5039157;28;20100;-71
2023/05/23 03:47:39;;;;;;;14.20;11.85;;;14.00;99.90;;;;;;5039158;28;20060;-71
2023/05/23 03:50:06;;;;;;;16.88;11.85;;;14.00;99.90;;;;;;5037783;28;20014;-70
2023/05/23 03:52:31;;;;;;;14.60;10.63;;;14.00;99.90;;;;;;5038887;28;20033;-70
2023/05/23 03:54:57;;;;;;;16.35;12.05;;;14.10;99.90;;;;;;5039087;28;20014;-71
2023/05/23 03:57:23;;;;;;;16.33;11.88;;;14.00;99.90;;;;;;5039094;28;20079;-70
2023/05/23 03:59:49;;;;;;;16.17;12.05;;;14.00;99.90;;;;;;5037310;28;20486;-69
2023/05/23 04:02:14;;;;;;;12.23;10.20;;;14.00;99.90;;;;;;5038861;28;20565;-70
2023/05/23 04:04:40;;;;;;;13.80;11.63;;;14.00;99.90;;;;;;5038696;28;20445;-70
2023/05/23 04:07:08;;;;;;;17.13;11.27;;;14.00;99.90;;;;;;5038879;28;20429;-70
2023/05/23 04:09:33;;;;;;;15.70;12.75;;;14.00;99.90;;;;;;5034205;28;20014;-70
2023/05/23 04:11:59;;;;;;;15.27;12.07;;;14.00;99.90;;;;;;5038626;28;20646;-71
2023/05/23 04:14:24;;;;;;;14.13;11.68;;;13.90;99.90;;;;;;5038549;28;20029;-71
2023/05/23 04:16:50;;;;;;;12.48;11.05;;;13.90;99.90;;;;;;5038565;28;20043;-71
2023/05/23 04:19:16;;;;;;;16.38;12.95;;;13.90;99.90;;;;;;5037041;28;20080;-70
2023/05/23 04:21:42;;;;;;;14.68;11.25;;;13.90;99.90;;;;;;5038393;28;20041;-71
2023/05/23 04:24:07;;;;;;;13.15;11.23;;;13.90;99.90;;;;;;5038598;28;20045;-70
2023/05/23 04:26:35;;;;;;;16.17;11.52;;;13.90;99.90;;;;;;5038440;28;20028;-70
2023/05/23 04:29:01;;;;;;;16.20;11.40;;;14.00;99.90;;;;;;5053311;28;20067;-70
2023/05/23 04:31:26;;;;;;;15.13;10.98;;;14.00;99.90;;;;;;5036993;28;20064;-71
2023/05/23 04:33:52;;;;;;;12.23;10.68;;;14.00;99.90;;;;;;5038160;28;20025;-70
2023/05/23 04:36:18;;;;;;;12.95;11.35;;;14.10;99.90;;;;;;5038257;28;20025;-70
2023/05/23 04:38:43;;;;;;;14.57;10.38;;;14.00;99.90;;;;;;5038012;28;20025;-71
2023/05/23 04:41:09;;;;;;;12.15;10.38;;;14.00;99.90;;;;;;5038067;28;20020;-70
2023/05/23 04:43:41;;;;;;;12.95;10.20;;;14.10;99.90;;;;;;5037982;28;20075;-70
2023/05/23 04:46:09;;;;;;;12.57;10.45;;;14.10;99.90;;;;;;5037447;28;20045;-70
2023/05/23 04:48:36;;;;;;;15.70;11.52;;;14.20;99.90;;;;;;5038028;28;20017;-71
2023/05/23 04:51:10;;;;;;;12.88;10.70;;;14.20;99.90;;;;;;5037952;28;20033;-71
2023/05/23 04:53:36;;;;;;;13.55;10.52;;;14.30;99.90;;;;;;5037772;28;20489;-71
2023/05/23 04:56:02;;;;;;;15.48;11.57;;;14.30;99.90;;;;;;5038014;28;20097;-71
2023/05/23 04:58:27;;;;;;;13.07;11.52;;;14.40;99.90;;;;;;5037407;28;20036;-72
2023/05/23 05:00:53;;;;;;;20.10;11.52;;;14.40;99.90;;;;;;5036367;28;20025;-71
2023/05/23 05:03:19;;;;;;;15.60;12.43;;;14.40;99.90;;;;;;5037758;28;20041;-71
2023/05/23 05:05:44;;;;;;;23.40;11.90;;;14.50;99.90;;;;;;5037683;28;20071;-72
2023/05/23 05:08:10;;;;;;;20.58;12.93;;;14.50;99.90;;;;;;5037614;28;20025;-71
2023/05/23 05:10:37;;;;;;;15.85;11.45;;;14.60;99.90;;;;;;5032916;28;20068;-71
2023/05/23 05:13:02;;;;;;;18.13;12.20;;;14.60;99.90;;;;;;5037344;28;20591;-71
2023/05/23 05:15:28;;;;;;;15.45;12.73;;;14.70;99.90;;;;;;5037495;28;20029;-71
2023/05/23 05:17:53;;;;;;;13.82;11.77;;;14.80;99.90;;;;;;5037595;28;20029;-71
2023/05/23 05:20:20;;;;;;;15.15;12.48;;;14.80;99.90;;;;;;5037196;28;20455;-72
2023/05/23 05:22:46;;;;;;;15.23;12.18;;;14.80;99.90;;;;;;5037320;28;20017;-72
2023/05/23 05:25:11;;;;;;;19.05;12.82;;;14.90;99.90;;;;;;5037495;28;20017;-71
2023/05/23 05:27:38;;;;;;;15.13;12.15;;;14.90;99.90;;;;;;5036687;28;20017;-71
2023/05/23 05:30:08;;;;;;;16.33;11.90;;;14.90;99.90;;;;;;5035141;28;20022;-71
2023/05/23 05:32:34;;;;;;;15.07;12.27;;;14.90;99.90;;;;;;5035461;28;20088;-72
2023/05/23 05:35:00;;;;;;;20.35;13.23;;;14.90;99.90;;;;;;5036891;28;20025;-72
2023/05/23 05:37:26;;;;;;;18.05;13.35;;;14.90;99.90;;;;;;5036110;28;20087;-71
2023/05/23 05:39:53;;;;;;;18.88;13.30;;;15.00;99.90;;;;;;5037152;28;20021;-72
2023/05/23 05:42:19;;;;;;;15.93;12.00;;;15.00;99.90;;;;;;5035890;28;20032;-72
2023/05/23 05:44:46;;;;;;;15.60;13.20;;;15.00;99.90;;;;;;5036957;28;20078;-71
2023/05/23 05:47:12;;;;;;;17.63;12.82;;;15.00;99.90;;;;;;5035829;28;20032;-72
2023/05/23 05:49:37;;;;;;;20.73;13.82;;;15.00;99.90;;;;;;5036969;28;20049;-71
2023/05/23 05:52:05;;;;;;;16.77;13.07;;;14.90;99.90;;;;;;5036923;28;20029;-71
2023/05/23 05:54:31;;;;;;;16.60;12.25;;;14.90;99.90;;;;;;5035693;28;20029;-72
2023/05/23 05:56:57;;;;;;;14.05;12.48;;;14.80;99.90;;;;;;5035790;28;20036;-73
2023/05/23 05:59:22;;;;;;;19.90;14.65;;;14.90;99.90;;;;;;5036623;28;20022;-72
2023/05/23 06:01:50;;;;;;;16.83;13.80;;;14.90;99.90;;;;;;5029492;28;20033;-72
2023/05/23 06:04:16;;;;;;;19.33;14.60;;;14.90;99.90;;;;;;5036588;28;20097;-72
2023/05/23 06:06:42;;;;;;;17.83;14.50;;;14.80;99.90;;;;;;5032921;28;20575;-71
2023/05/23 06:09:07;;;;;;;17.83;14.07;;;14.90;99.90;;;;;;5024727;28;20053;-71
2023/05/23 06:11:33;;;;;;;23.17;14.73;;;14.90;99.90;;;;;;5034973;28;20109;-72
2023/05/23 06:13:58;;;;;;;20.10;14.27;;;14.90;99.90;;;;;;5030403;28;20022;-71
2023/05/23 06:16:24;;;;;;;18.35;15.07;;;15.00;99.90;;;;;;5030940;28;20036;-72
2023/05/23 06:18:50;;;;;;;21.60;15.15;;;15.00;99.90;;;;;;5031518;28;20045;-72
2023/05/23 06:21:15;;;;;;;20.77;15.35;;;15.00;99.90;;;;;;5025098;28;20037;-72
2023/05/23 06:23:41;;;;;;;23.83;15.88;;;15.10;99.90;;;;;;5045129;28;20014;-72
2023/05/23 06:26:09;;;;;;;21.60;15.77;;;15.10;99.90;;;;;;5023729;28;20091;-72
2023/05/23 06:28:41;;;;;;;20.85;15.27;;;15.20;99.90;;;;;;5029982;28;20056;-72
2023/05/23 06:31:08;;;;;;;22.25;15.70;;;15.20;99.90;;;;;;5023662;28;20084;-72
2023/05/23 06:33:34;;;;;;;18.35;14.98;;;15.20;99.90;;;;;;5025818;28;20022;-72
2023/05/23 06:36:00;;;;;;;20.63;14.90;;;15.30;99.90;;;;;;5030033;28;20429;-72
2023/05/23 06:38:32;;;;;;;21.00;14.52;;;15.30;99.90;;;;;;5034433;28;20026;-73
2023/05/23 06:40:58;;;;;;;19.05;15.27;;;15.40;99.90;;;;;;5036533;28;20025;-72
2023/05/23 06:43:23;;;;;;;17.42;14.00;;;15.40;99.90;;;;;;5036485;28;20152;-73
2023/05/23 06:45:49;;;;;;;17.05;14.00;;;15.40;99.90;;;;;;5036433;28;20032;-73
2023/05/23 06:48:15;;;;;;;21.33;14.02;;;15.40;99.90;;;;;;5036526;28;20026;-72
2023/05/23 06:50:41;;;;;;;21.20;14.20;;;15.40;99.90;;;;;;5036454;28;20033;-73
2023/05/23 06:53:06;;;;;;;17.67;13.40;;;15.40;99.90;;;;;;5036658;28;20109;-72
2023/05/23 06:55:35;;;;;;;16.27;13.30;;;15.50;99.90;;;;;;5036201;28;21402;-73
2023/05/23 06:58:02;;;;;;;16.80;12.85;;;15.50;99.90;;;;;;5023472;28;20501;-74
2023/05/23 07:00:30;;;;;;;17.88;12.88;;;15.60;99.90;;;;;;5027121;28;20567;-74
2023/05/23 07:02:59;;;;;;;16.58;12.65;;;15.60;99.90;;;;;;5032811;28;20104;-74
2023/05/23 07:05:26;;;;;;;12.70;10.88;;;15.70;99.90;;;;;;5034178;28;20079;-73
2023/05/23 07:07:52;;;;;;;15.60;11.77;;;15.80;99.90;;;;;;5031894;28;20024;-73
2023/05/23 07:10:18;;;;;;;17.10;10.88;;;15.80;99.90;;;;;;5037057;28;20508;-72
2023/05/23 07:12:44;;;;;;;12.40;10.55;;;15.90;99.90;;;;;;5035208;28;20030;-73
2023/05/23 07:15:11;;;;;;;12.68;10.73;;;15.90;99.90;;;;;;5036971;28;20030;-73
2023/05/23 07:17:36;;;;;;;14.25;11.05;;;16.00;99.90;;;;;;5032063;28;20037;-73
2023/05/23 07:20:03;;;;;;;12.23;10.50;;;16.10;99.90;;;;;;5033704;28;20089;-73
2023/05/23 07:22:30;;;;;;;15.07;10.45;;;16.20;99.90;;;;;;5035864;28;20041;-74
2023/05/23 07:24:56;;;;;;;15.35;10.65;;;16.20;99.90;;;;;;5036119;28;20021;-75
2023/05/23 07:27:21;;;;;;;17.33;10.73;;;16.30;99.90;;;;;;5035261;28;20041;-75
2023/05/23 07:29:47;;;;;;;14.00;11.07;;;16.30;99.90;;;;;;5031632;28;20615;-75
2023/05/23 07:32:13;;;;;;;14.13;9.57;;;16.30;99.90;;;;;;5038211;28;20107;-74
2023/05/23 07:34:40;;;;;;;10.52;9.40;;;16.40;99.90;;;;;;5033725;28;20030;-74
2023/05/23 07:37:05;;;;;;;11.00;9.38;;;16.40;99.90;;;;;;5037680;28;20104;-74
2023/05/23 07:39:31;;;;;;;11.73;9.35;;;16.40;99.90;;;;;;5034117;28;20053;-75
2023/05/23 07:41:56;;;;;;;14.15;10.38;;;16.30;99.90;;;;;;5037829;28;20030;-75
2023/05/23 07:44:22;;;;;;;11.43;9.05;;;16.30;99.90;;;;;;5037318;28;20026;-74
2023/05/23 07:46:48;;;;;;;11.55;10.15;;;16.30;99.90;;;;;;5035852;28;20055;-74
2023/05/23 07:49:13;;;;;;;13.80;10.05;;;16.30;99.90;;;;;;5032690;28;20033;-75
2023/05/23 07:51:40;;;;;;;13.35;9.88;;;16.40;99.90;;;;;;5036718;28;20393;-76
2023/05/23 07:54:06;;;;;;;13.10;9.63;;;16.50;99.90;;;;;;5036057;28;20021;-73
2023/05/23 07:56:32;;;;;;;10.88;9.77;;;16.60;99.90;;;;;;5036867;28;20565;-75
2023/05/23 07:58:57;;;;;;;11.52;9.20;;;16.60;99.90;;;;;;5033989;28;20405;-73
2023/05/23 08:01:24;;;;;;;12.00;9.20;;;16.70;99.90;;;;;;5035088;28;20025;-73
2023/05/23 08:03:50;;;;;;;9.93;8.70;;;16.80;99.90;;;;;;5036527;28;20026;-72
2023/05/23 08:06:15;;;;;;;11.35;8.43;;;16.80;99.90;;;;;;5037284;28;20112;-73
2023/05/23 08:08:42;;;;;;;11.40;8.48;;;16.80;99.90;;;;;;5033414;28;20048;-72
2023/05/23 08:11:08;;;;;;;11.65;8.73;;;16.80;99.90;;;;;;5035962;28;20021;-72
2023/05/23 08:13:34;;;;;;;10.63;8.15;;;16.80;99.90;;;;;;5033390;28;20029;-72
2023/05/23 08:16:00;;;;;;;12.52;8.55;;;16.90;99.90;;;;;;5037135;28;20548;-73
2023/05/23 08:18:26;;;;;;;9.52;8.18;;;16.90;99.90;;;;;;5034601;28;20075;-72
2023/05/23 08:20:52;;;;;;;10.15;8.13;;;17.00;99.90;;;;;;5035803;28;20026;-72
2023/05/23 08:23:18;;;;;;;11.05;7.93;;;17.20;99.90;;;;;;5036770;28;20080;-72
2023/05/23 08:25:44;;;;;;;10.55;7.88;;;17.30;99.90;;;;;;5035277;28;20059;-74
2023/05/23 08:28:09;;;;;;;8.93;7.63;;;17.40;99.90;;;;;;5034411;28;20030;-74
2023/05/23 08:30:35;;;;;;;10.88;7.47;;;17.60;99.90;;;;;;5035431;28;20034;-73
2023/05/23 08:33:03;;;;;;;9.80;8.02;;;17.70;99.90;;;;;;5036816;28;20079;-72
2023/05/23 08:35:33;;;;;;;10.25;8.25;;;17.80;99.90;;;;;;5035542;28;20490;-73
2023/05/23 08:38:00;;;;;;;10.20;7.35;;;17.80;99.90;;;;;;5033547;28;20021;-75
2023/05/23 08:40:28;;;;;;;9.50;8.02;;;17.80;99.90;;;;;;5036488;28;20470;-72
2023/05/23 08:42:54;;;;;;;10.13;7.30;;;17.90;99.90;;;;;;5036276;28;20022;-72
2023/05/23 08:45:20;;;;;;;8.65;7.20;;;17.90;99.90;;;;;;5036866;28;20021;-71
2023/05/23 08:47:46;;;;;;;9.70;6.68;;;18.00;99.90;;;;;;5035437;28;20029;-72
2023/05/23 08:50:13;;;;;;;8.15;6.32;;;18.10;99.90;;;;;;5034487;28;20032;-72
2023/05/23 08:53:03;;;;;;;8.45;7.00;;;18.30;99.90;;;;;;5036511;28;20413;-72
2023/05/23 08:55:29;;;;;;;10.43;7.82;;;18.30;99.90;;;;;;5045883;28;20038;-72
2023/05/23 08:57:59;;;;;;;8.30;6.40;;;18.30;99.90;;;;;;5033700;28;20032;-71
2023/05/23 09:00:25;;;;;;;7.70;6.75;;;18.30;99.90;;;;;;5034108;28;20049;-72
2023/05/23 09:02:53;;;;;;;8.00;5.63;;;18.40;99.90;;;;;;5034279;28;20390;-72
2023/05/23 09:05:19;;;;;;;9.60;7.25;;;18.70;99.90;;;;;;5035922;28;20036;-71
2023/05/23 09:07:49;;;;;;;7.93;6.30;;;18.90;99.90;;;;;;5035874;28;20383;-72
2023/05/23 09:10:21;;;;;;;7.63;6.28;;;19.00;99.90;;;;;;5034234;28;20032;-72
2023/05/23 09:12:47;;;;;;;8.13;6.60;;;19.00;99.90;;;;;;5032429;28;20061;-72
2023/05/23 09:15:13;;;;;;;9.07;7.10;;;19.00;99.90;;;;;;5036181;28;20033;-73
2023/05/23 09:17:39;;;;;;;10.60;7.05;;;19.00;99.90;;;;;;5034863;28;20030;-71
2023/05/23 09:20:13;;;;;;;7.70;6.70;;;19.10;99.90;;;;;;5034281;28;20571;-71
2023/05/23 09:22:39;;;;;;;8.50;6.95;;;19.00;99.90;;;;;;5033224;28;20022;-71
2023/05/23 09:25:06;;;;;;;10.05;6.75;;;19.20;99.90;;;;;;5035773;28;20072;-72
2023/05/23 09:27:32;;;;;;;9.18;6.55;;;18.90;99.90;;;;;;5035630;28;20036;-71
2023/05/23 09:30:11;;;;;;;12.48;6.82;;;19.00;99.90;;;;;;5033947;28;20498;-71
2023/05/23 09:32:36;;;;;;;9.80;7.15;;;19.00;99.90;;;;;;5034029;28;20026;-72
2023/05/23 09:35:04;;;;;;;7.82;6.78;;;19.10;99.90;;;;;;5033923;28;20056;-72
2023/05/23 09:37:44;;;;;;;7.60;6.80;;;19.30;99.90;;;;;;5035702;28;20448;-71
2023/05/23 09:40:12;;;;;;;8.23;7.25;;;19.50;99.90;;;;;;5033712;28;20075;-71
2023/05/23 09:42:43;;;;;;;6.35;5.75;;;19.60;99.90;;;;;;5035199;28;20041;-71
2023/05/23 09:45:09;;;;;;;10.48;6.22;;;19.70;99.90;;;;;;5035553;28;20025;-72
2023/05/23 09:47:35;;;;;;;7.63;6.68;;;19.70;99.90;;;;;;5033139;28;20022;-71
2023/05/23 09:50:01;;;;;;;11.05;6.78;;;19.70;99.90;;;;;;5032206;28;20025;-71
2023/05/23 09:52:26;;;;;;;10.48;6.50;;;19.80;99.90;;;;;;5035594;28;20041;-71
2023/05/23 09:54:53;;;;;;;9.10;6.22;;;19.80;99.90;;;;;;5035436;28;20033;-71
2023/05/23 09:57:22;;;;;;;7.03;5.70;;;19.90;99.90;;;;;;5035624;28;20021;-72
2023/05/23 09:59:57;;;;;;;8.32;5.35;;;20.20;99.90;;;;;;5031612;28;20409;-71
2023/05/23 10:03:07;;;;;;;8.95;5.90;;;20.70;99.90;;;;;;5031119;28;20021;-71
2023/05/23 10:05:56;;;;;;;7.93;5.53;;;20.80;99.90;;;;;;5030468;28;20095;-72
2023/05/23 10:08:21;;;;;;;8.73;6.90;;;20.80;99.90;;;;;;5028708;28;20022;-71
2023/05/23 10:10:56;;;;;;;9.32;5.82;;;20.90;99.90;;;;;;5034284;28;20403;-72
2023/05/23 10:13:28;;;;;;;28.23;10.73;;;20.90;99.90;;;;;;5032249;28;20029;-72
2023/05/23 10:16:20;;;;;;;26.45;9.82;;;20.80;99.90;;;;;;5031461;28;20108;-72
2023/05/23 10:18:50;;;;;;;70.72;20.95;;;20.80;99.90;;;;;;5032469;28;20132;-71
2023/05/23 10:21:19;;;;;;;11.90;6.88;;;21.00;99.90;;;;;;5035169;28;20033;-72
2023/05/23 10:23:47;;;;;;;8.32;5.18;;;21.40;99.90;;;;;;5034213;28;20022;-74
2023/05/23 10:26:12;;;;;;;7.93;5.07;;;21.70;99.90;;;;;;5034073;28;20022;-70
2023/05/23 10:28:39;;;;;;;11.65;5.63;;;21.50;99.90;;;;;;5034487;28;20379;-74
2023/05/23 10:31:05;;;;;;;7.85;5.25;;;21.70;99.90;;;;;;5035064;28;20030;-73
2023/05/23 10:33:37;;;;;;;8.20;5.15;;;21.70;99.90;;;;;;5033954;28;20049;-74
2023/05/23 10:36:11;;;;;;;7.72;5.53;;;21.60;99.90;;;;;;5033660;28;20026;-70
2023/05/23 10:38:45;;;;;;;7.35;5.03;;;21.20;99.90;;;;;;5033777;28;20044;-72
2023/05/23 10:41:26;;;;;;;7.57;5.50;;;21.30;99.90;;;;;;5034992;28;20038;-71
2023/05/23 10:44:20;;;;;;;7.28;5.65;;;21.20;99.90;;;;;;5035482;28;20425;-71
2023/05/23 10:46:56;;;;;;;6.82;5.05;;;21.30;99.90;;;;;;5038823;28;20034;-71
2023/05/23 10:49:37;;;;;;;6.22;4.70;;;21.70;99.90;;;;;;5035715;28;20029;-74
2023/05/23 10:52:03;;;;;;;7.72;6.05;;;21.70;99.90;;;;;;5037873;28;20052;-74
2023/05/23 10:54:45;;;;;;;8.65;5.50;;;21.80;99.90;;;;;;5039352;28;20025;-74
2023/05/23 10:57:15;;;;;;;5.38;4.50;;;21.70;99.90;;;;;;5037384;28;20130;-73
2023/05/23 10:59:41;;;;;;;6.25;4.80;;;21.70;99.90;;;;;;5037859;28;20109;-74
2023/05/23 11:02:16;;;;;;;6.65;4.70;;;21.60;99.90;;;;;;5031092;28;20030;-71
2023/05/23 11:04:42;;;;;;;8.27;5.00;;;21.50;99.90;;;;;;5035599;28;20017;-71
2023/05/23 11:07:28;;;;;;;5.43;4.47;;;21.60;99.90;;;;;;5036144;28;20378;-71
2023/05/23 11:10:03;;;;;;;4.82;4.25;;;21.80;99.90;;;;;;5033597;28;20017;-73
2023/05/23 11:12:38;;;;;;;6.63;4.65;;;22.00;99.90;;;;;;5038257;28;20030;-74
2023/05/23 11:15:21;;;;;;;4.75;4.05;;;22.00;99.90;;;;;;5035653;28;20025;-74
2023/05/23 11:17:55;;;;;;;5.78;4.55;;;22.20;99.90;;;;;;5032472;28;20108;-74
2023/05/23 11:20:26;;;;;;;6.45;4.65;;;22.20;99.90;;;;;;5034489;28;20132;-72
2023/05/23 11:22:59;;;;;;;7.07;4.82;;;22.20;99.90;;;;;;5036547;28;20026;-73
2023/05/23 11:25:42;;;;;;;8.27;4.90;;;22.10;99.90;;;;;;5035563;28;20408;-73
2023/05/23 11:28:09;;;;;;;7.32;4.80;;;22.00;99.90;;;;;;5033198;28;20025;-73
2023/05/23 11:30:38;;;;;;;5.10;4.00;;;22.20;99.90;;;;;;5035614;28;20432;-74
2023/05/23 11:33:15;;;;;;;4.97;3.83;;;22.40;99.90;;;;;;5037816;28;20029;-73
2023/05/23 11:35:44;;;;;;;7.03;4.90;;;22.70;99.90;;;;;;5036365;28;20080;-73
2023/05/23 11:38:10;;;;;;;4.65;3.97;;;23.00;99.90;;;;;;5033826;28;20575;-75
2023/05/23 11:40:38;;;;;;;6.82;4.95;;;23.20;99.90;;;;;;5030351;28;20018;-74
2023/05/23 11:43:09;;;;;;;6.63;4.30;;;23.30;99.90;;;;;;5034271;28;20093;-74
2023/05/23 11:45:36;;;;;;;5.28;4.00;;;23.00;99.90;;;;;;5034331;28;20028;-74
2023/05/23 11:48:06;;;;;;;5.03;3.75;;;22.80;99.90;;;;;;5034642;28;20037;-74
2023/05/23 11:50:33;;;;;;;5.32;4.25;;;22.80;99.90;;;;;;5035375;28;20040;-73
2023/05/23 11:52:59;;;;;;;4.65;4.20;;;22.70;99.90;;;;;;5033126;28;20479;-74
2023/05/23 11:55:25;;;;;;;5.40;4.05;;;22.40;99.90;;;;;;5036728;28;20014;-71
2023/05/23 11:57:51;;;;;;;5.03;4.20;;;22.30;99.90;;;;;;5033627;28;20017;-71
2023/05/23 12:00:17;;;;;;;5.63;4.30;;;22.40;99.90;;;;;;5030758;28;20029;-71
2023/05/23 12:02:44;;;;;;;5.47;4.22;;;22.60;99.90;;;;;;5039038;28;20044;-71
2023/05/23 12:05:12;;;;;;;6.03;4.57;;;22.80;99.90;;;;;;5036052;28;20178;-72
2023/05/23 12:07:43;;;;;;;6.25;4.30;;;22.90;99.90;;;;;;5037595;28;20036;-71
2023/05/23 12:10:09;;;;;;;;;;;23.30;99.90;;;;;;5035860;28;21464;-71
2023/05/23 12:12:36;;;;;;;4.90;4.40;;;23.70;99.90;;;;;;5037206;28;19992;-72
2023/05/23 12:15:01;;;;;;;5.68;4.07;;;23.90;99.90;;;;;;5036447;28;20087;-72
2023/05/23 12:17:27;;;;;;;6.13;4.22;;;24.30;99.90;;;;;;5036991;28;20104;-72
2023/05/23 12:19:53;;;;;;;5.72;4.70;;;24.70;99.90;;;;;;5035360;28;20132;-72
2023/05/23 12:22:25;;;;;;;6.13;4.00;;;24.70;99.90;;;;;;5036292;28;20028;-72
2023/05/23 12:24:55;;;;;;;4.30;3.08;;;24.80;99.90;;;;;;5033230;28;20502;-72
2023/05/23 12:27:28;;;;;;;4.63;3.63;;;24.80;99.90;;;;;;5033247;28;20049;-71
2023/05/23 12:30:10;;;;;;;5.30;3.40;;;24.70;99.90;;;;;;5029057;28;20121;-72
2023/05/23 12:32:43;;;;;;;4.32;3.50;;;24.90;99.90;;;;;;5047704;28;20050;-72
2023/05/23 12:35:14;;;;;;;5.57;3.92;;;25.10;99.90;;;;;;5037061;28;20100;-72
2023/05/23 12:37:41;;;;;;;5.55;4.20;;;24.90;99.90;;;;;;5036943;28;20470;-72
2023/05/23 12:40:17;;;;;;;5.75;4.05;;;24.40;99.90;;;;;;5033305;28;20021;-72